Sommer S — WDG3830 — position and weather

sailwx.info

Track history (hours):
 
Tides and Currents Weather Stations Pressure Air Temp Water Temp Dewpoint Dewpoint Depression Visibility Wind Speed Wind Dir Waves Ship Positions

Sommer S

Owner: Shaver Transportation Company, Portland, OR. More information available from US FCC via Universal Licensing System and Coast Guard Vessel Documentation Center.

Last reported at 2016-Dec-07 13:34 UTC. Time now 2016-Dec-07 14:30 UTC.
Position N 46°05' W 122°56'.

Length 25 m; draft 16.5 m.

Type: Tug. MMSI: 367530080.

Date/timePositionNaut miles runAvg speedWind from/ knotsBaromVisibWave heightAir tempDewpointWater temp
2016-Dec-07 13:34N 46°05' W 122°56'0 0.0
2016-Dec-07 12:33N 46°05' W 122°56'0 0.0
2016-Dec-07 11:33N 46°05' W 122°56'0 0.0
2016-Dec-07 10:33N 46°05' W 122°56'0 0.0
2016-Dec-07 09:34N 46°05' W 122°56'0 0.0
2016-Dec-07 08:33N 46°05' W 122°56'0 0.0
2016-Dec-07 07:34N 46°05' W 122°56'0 0.0
2016-Dec-07 06:34N 46°05' W 122°56'0 0.0
2016-Dec-07 05:34N 46°05' W 122°56'0 0.0
2016-Dec-07 04:34N 46°05' W 122°56'0 0.0
2016-Dec-07 03:34N 46°05' W 122°56'0 0.0
2016-Dec-07 02:33N 46°05' W 122°56'0 0.0
2016-Dec-07 01:34N 46°05' W 122°56'0 0.0
2016-Dec-07 00:33N 46°05' W 122°56'1 0.5
2016-Dec-06 23:34N 46°06' W 122°56'1 0.9
2016-Dec-06 22:33N 46°05' W 122°55'0 0.0
2016-Dec-06 21:34N 46°05' W 122°55'0 0.0
2016-Dec-06 20:34N 46°05' W 122°55'0 0.0
2016-Dec-06 18:33N 46°05' W 122°55'2 1.6
2016-Dec-06 17:33N 46°06' W 122°57'0 0.1
2016-Dec-06 16:34N 46°06' W 122°57'1 1.2
2016-Dec-06 15:33N 46°05' W 122°56'0 0.0
2016-Dec-06 14:33N 46°05' W 122°56'0 0.0
2016-Dec-06 13:33N 46°05' W 122°56'0 0.0
2016-Dec-06 12:34N 46°05' W 122°56'0 0.0
2016-Dec-06 11:33N 46°05' W 122°56'2 2.3
2016-Dec-06 10:34N 46°04' W 122°53'0 0.4
2016-Dec-06 09:34N 46°04' W 122°53'0 0.0
2016-Dec-06 08:33N 46°04' W 122°53'0 0.0
2016-Dec-06 07:33N 46°04' W 122°53'0 0.0
2016-Dec-06 06:34N 46°04' W 122°53'0 0.0
2016-Dec-06 05:34N 46°04' W 122°53'2 2.0
2016-Dec-06 04:33N 46°02' W 122°52'1 0.6
2016-Dec-06 03:33N 46°01' W 122°52'1111.2
2016-Dec-06 02:34N 45°50' W 122°47'1111.5
2016-Dec-06 01:33N 45°39' W 122°45'1 0.7
2016-Dec-06 00:34N 45°40' W 122°46'0 0.4
2016-Dec-05 23:33N 45°40' W 122°45'2 2.0
2016-Dec-05 22:33N 45°38' W 122°43'4 3.9
2016-Dec-05 21:34N 45°35' W 122°46'2 2.1
2016-Dec-05 20:33N 45°34' W 122°44'1 0.6
2016-Dec-05 19:33N 45°34' W 122°44'1 0.9
2016-Dec-05 18:33N 45°35' W 122°45'4 3.8
2016-Dec-05 17:33N 45°38' W 122°42'2 1.6
2016-Dec-05 16:33N 45°39' W 122°44'1 1.4
2016-Dec-05 15:33N 45°38' W 122°42'2 2.4
2016-Dec-05 14:33N 45°39' W 122°45'2 2.2
2016-Dec-05 13:33N 45°38' W 122°43'0 0.1
2016-Dec-05 12:34N 45°38' W 122°43'2 1.6
2016-Dec-05 11:33N 45°39' W 122°45'0 0.0
2016-Dec-05 10:34N 45°39' W 122°45'0 0.0
2016-Dec-05 09:33N 45°39' W 122°45'0 0.0
2016-Dec-05 08:33N 45°39' W 122°45'0 0.0
2016-Dec-05 07:34N 45°39' W 122°45'0 0.0
2016-Dec-05 06:33N 45°39' W 122°45'0 0.0
2016-Dec-05 05:34N 45°39' W 122°45'1 1.4
2016-Dec-05 04:34N 45°38' W 122°47'6 6.1
2016-Dec-05 03:33N 45°33' W 122°42'1 1.3
2016-Dec-05 02:32N 45°32' W 122°41'3 2.6
2016-Dec-05 01:33N 45°34' W 122°44'5 5.0
2016-Dec-05 00:34N 45°38' W 122°47'3 3.0
2016-Dec-04 23:34N 45°38' W 122°43'0 0.5
2016-Dec-04 22:33N 45°38' W 122°44'1 1.4
2016-Dec-04 21:33N 45°38' W 122°42'3 2.6
2016-Dec-04 20:33N 45°39' W 122°45'2 2.1
2016-Dec-04 19:34N 45°38' W 122°42'4 3.9
2016-Dec-04 18:33N 45°35' W 122°46'2 1.9
2016-Dec-04 17:34N 45°34' W 122°44'0 0.0
2016-Dec-04 16:33N 45°34' W 122°44'1 1.4
2016-Dec-04 15:33N 45°35' W 122°45'2 2.0
2016-Dec-04 14:33N 45°36' W 122°47'0 0.4
2016-Dec-04 13:33N 45°36' W 122°47'3 3.0
2016-Dec-04 12:33N 45°39' W 122°46'1 0.8
2016-Dec-04 11:34N 45°39' W 122°45'0 0.0
2016-Dec-04 10:33N 45°39' W 122°45'0 0.0
2016-Dec-04 09:34N 45°39' W 122°45'0 0.0
2016-Dec-04 08:34N 45°39' W 122°45'0 0.0
2016-Dec-04 07:33N 45°39' W 122°45'0 0.0
2016-Dec-04 06:33N 45°39' W 122°45'0 0.0
2016-Dec-04 05:34N 45°39' W 122°45'0 0.0
2016-Dec-04 04:34N 45°39' W 122°45'0 0.0
2016-Dec-04 03:33N 45°39' W 122°45'1 1.1
2016-Dec-04 02:33N 45°38' W 122°44'1 1.1
2016-Dec-04 01:34N 45°39' W 122°45'0 0.0
2016-Dec-04 00:33N 45°39' W 122°45'0 0.0
2016-Dec-03 23:33N 45°39' W 122°45'1 0.8
2016-Dec-03 22:33N 45°39' W 122°46'3 2.7
2016-Dec-03 21:34N 45°36' W 122°47'0 0.1
2016-Dec-03 20:33N 45°36' W 122°47'0 0.1
2016-Dec-03 19:34N 45°36' W 122°47'3 3.1
2016-Dec-03 18:34N 45°34' W 122°44'1 0.6
2016-Dec-03 17:33N 45°34' W 122°43'0 0.0
2016-Dec-03 16:33N 45°34' W 122°43'0 0.0
2016-Dec-03 15:33N 45°34' W 122°43'5 5.1
2016-Dec-03 14:33N 45°39' W 122°47'3 2.7
2016-Dec-03 13:34N 45°38' W 122°43'1 1.5
2016-Dec-03 12:33N 45°39' W 122°45'3 2.7
2016-Dec-03 11:34N 45°36' W 122°47'0 0.0
2016-Dec-03 10:34N 45°36' W 122°47'3 2.6
2016-Dec-03 09:34N 45°34' W 122°44'0 0.3
2016-Dec-03 08:34N 45°34' W 122°44'1 0.5
2016-Dec-03 07:34N 45°34' W 122°44'0 0.0
2016-Dec-03 06:33N 45°34' W 122°44'0 0.0
2016-Dec-03 05:34N 45°34' W 122°44'0 0.0
2016-Dec-03 04:33N 45°34' W 122°44'0 0.0
2016-Dec-03 03:34N 45°34' W 122°44'0 0.0
2016-Dec-03 02:33N 45°34' W 122°44'0 0.0
2016-Dec-03 01:34N 45°34' W 122°44'1 0.5
2016-Dec-03 00:33N 45°34' W 122°43'3 3.2
2016-Dec-02 23:34N 45°36' W 122°47'9 8.8
2016-Dec-02 22:33N 45°45' W 122°46'3 3.3
2016-Dec-02 21:34N 45°48' W 122°47'5 5.3
2016-Dec-02 20:34N 45°53' W 122°48'3 2.8
2016-Dec-02 19:34N 45°51' W 122°47'9 9.0
2016-Dec-02 18:33N 45°41' W 122°46'7 6.8
2016-Dec-02 17:34N 45°35' W 122°45'2 1.6
2016-Dec-02 16:34N 45°34' W 122°43'0 0.1
2016-Dec-02 15:33N 45°34' W 122°43'1 0.6
2016-Dec-02 14:33N 45°34' W 122°44'0 0.0
2016-Dec-02 13:33N 45°34' W 122°44'0 0.0
2016-Dec-02 12:34N 45°34' W 122°44'0 0.0
2016-Dec-02 11:34N 45°34' W 122°44'0 0.0
2016-Dec-02 10:34N 45°34' W 122°44'0 0.0
2016-Dec-02 09:27N 45°34' W 122°44'0 0.0
2016-Dec-02 08:17N 45°34' W 122°44'0 0.5
2016-Dec-02 07:33N 45°34' W 122°44'3 2.9
2016-Dec-02 06:33N 45°32' W 122°41'1 1.3
2016-Dec-02 05:33N 45°33' W 122°42'1 1.3
2016-Dec-02 04:33N 45°34' W 122°44'0 0.0
2016-Dec-02 03:33N 45°34' W 122°44'5 5.4
2016-Dec-02 02:33N 45°39' W 122°46'1 0.7
2016-Dec-02 01:33N 45°39' W 122°45'4 4.2
2016-Dec-02 00:33N 45°35' W 122°45'4 3.4
2016-Dec-01 23:26N 45°32' W 122°40'3 3.1
2016-Dec-01 22:33N 45°34' W 122°44'0 0.0
2016-Dec-01 21:33N 45°34' W 122°44'2 2.4
2016-Dec-01 20:33N 45°32' W 122°41'0 0.2
2016-Dec-01 19:33N 45°32' W 122°41'3 2.7
2016-Dec-01 18:34N 45°34' W 122°44'1 1.3
2016-Dec-01 17:34N 45°35' W 122°45'1 1.4
2016-Dec-01 16:33N 45°34' W 122°44'0 0.0
2016-Dec-01 15:34N 45°34' W 122°44'0 0.0
2016-Dec-01 14:33N 45°34' W 122°44'1 0.7
2016-Dec-01 13:33N 45°34' W 122°44'4 4.5
2016-Dec-01 12:33N 45°39' W 122°45'2 1.6
2016-Dec-01 11:34N 45°40' W 122°46'2 1.6
2016-Dec-01 10:34N 45°39' W 122°45'0 0.0
2016-Dec-01 09:33N 45°39' W 122°45'0 0.0
2016-Dec-01 08:34N 45°39' W 122°45'0 0.0
2016-Dec-01 07:34N 45°39' W 122°45'0 0.4
2016-Dec-01 06:34N 45°39' W 122°45'0 0.4
2016-Dec-01 05:33N 45°39' W 122°45'0 0.0
2016-Dec-01 04:33N 45°39' W 122°45'0 0.0
2016-Dec-01 03:33N 45°39' W 122°45'2 2.3
2016-Dec-01 02:34N 45°37' W 122°47'6 5.6
2016-Dec-01 01:34N 45°33' W 122°42'1 1.3
2016-Dec-01 00:33N 45°32' W 122°40'3 2.7
2016-Nov-30 23:33N 45°34' W 122°44'0 0.0
2016-Nov-30 22:33N 45°34' W 122°44'0 0.0
2016-Nov-30 21:33N 45°34' W 122°44'3 2.7
2016-Nov-30 20:32N 45°32' W 122°40'2 2.5
2016-Nov-30 19:33N 45°34' W 122°43'0 0.3
2016-Nov-30 18:33N 45°34' W 122°44'0 0.0
2016-Nov-30 17:33N 45°34' W 122°44'0 0.2
2016-Nov-30 16:33N 45°34' W 122°43'2 1.6
2016-Nov-30 15:34N 45°33' W 122°42'1 0.6
2016-Nov-30 14:33N 45°33' W 122°42'6 5.9
2016-Nov-30 13:33N 45°38' W 122°47'2 2.4
2016-Nov-30 12:33N 45°39' W 122°44'8 7.6
2016-Nov-30 11:34N 45°46' W 122°46'10 9.6
2016-Nov-30 10:34N 45°55' W 122°48'9 9.3
2016-Nov-30 09:33N 46°04' W 122°53'2 2.2
2016-Nov-30 08:33N 46°05' W 122°56'0 0.0
2016-Nov-30 07:34N 46°05' W 122°56'0 0.0
2016-Nov-30 06:33N 46°05' W 122°56'0 0.0
2016-Nov-30 05:34N 46°05' W 122°56'0 0.0
2016-Nov-30 04:33N 46°05' W 122°56'0 0.0
2016-Nov-30 03:34N 46°05' W 122°56'0 0.0
2016-Nov-30 02:33N 46°05' W 122°56'4 3.7
2016-Nov-30 01:34N 46°03' W 122°53'4 3.6
2016-Nov-30 00:33N 46°05' W 122°56'0 0.0
2016-Nov-29 23:33N 46°05' W 122°56'7 7.4
2016-Nov-29 22:33N 45°59' W 122°50'0 0.1
2016-Nov-29 21:33N 45°59' W 122°50'2 2.3
2016-Nov-29 20:34N 46°01' W 122°52'6 5.5
2016-Nov-29 19:33N 46°06' W 122°56'0 0.4
2016-Nov-29 18:33N 46°06' W 122°57'0 0.3
2016-Nov-29 17:34N 46°06' W 122°56'4 4.1
2016-Nov-29 16:33N 46°03' W 122°53'1212.3
2016-Nov-29 15:33N 45°51' W 122°47'1110.5
2016-Nov-29 14:34N 45°40' W 122°46'2 2.2
2016-Nov-29 13:33N 45°39' W 122°45'1 1.1
2016-Nov-29 12:33N 45°38' W 122°43'1 1.5
2016-Nov-29 11:34N 45°39' W 122°45'1 0.6
2016-Nov-29 10:33N 45°39' W 122°44'0 0.1
2016-Nov-29 09:33N 45°39' W 122°44'0 0.5
2016-Nov-29 08:34N 45°39' W 122°45'1 0.8
2016-Nov-29 07:33N 45°39' W 122°46'0 0.1
2016-Nov-29 06:33N 45°39' W 122°46'1 1.1
2016-Nov-29 05:34N 45°39' W 122°45'1 0.6
2016-Nov-29 04:34N 45°38' W 122°44'1 1.2
2016-Nov-29 03:33N 45°38' W 122°42'4 3.9
2016-Nov-29 02:34N 45°36' W 122°47'2 2.3
2016-Nov-29 01:34N 45°34' W 122°44'1 0.6
2016-Nov-29 00:33N 45°34' W 122°44'0 0.0
2016-Nov-28 23:33N 45°34' W 122°44'0 0.0
2016-Nov-28 22:33N 45°34' W 122°44'0 0.0
2016-Nov-28 21:33N 45°34' W 122°44'0 0.0
2016-Nov-28 20:33N 45°34' W 122°44'3 2.5
2016-Nov-28 19:33N 45°32' W 122°41'3 2.5
2016-Nov-28 18:34N 45°34' W 122°44'0 0.0
2016-Nov-28 17:33N 45°34' W 122°44'0 0.0
2016-Nov-28 16:34N 45°34' W 122°44'0 0.0
2016-Nov-28 15:34N 45°34' W 122°44'3 2.9
2016-Nov-28 14:34N 45°36' W 122°46'1 0.6
2016-Nov-28 13:34N 45°36' W 122°47'0 0.0
2016-Nov-28 12:33N 45°36' W 122°47'0 0.0
2016-Nov-28 11:34N 45°36' W 122°47'0 0.0
2016-Nov-28 10:34N 45°36' W 122°47'0 0.0
2016-Nov-28 09:33N 45°36' W 122°47'0 0.0
2016-Nov-28 08:33N 45°36' W 122°47'3 2.9
2016-Nov-28 07:34N 45°34' W 122°44'1 0.6
2016-Nov-28 06:33N 45°35' W 122°45'2 2.3
2016-Nov-28 05:33N 45°36' W 122°47'0 0.0
2016-Nov-28 04:34N 45°36' W 122°47'3 2.9
2016-Nov-28 03:33N 45°34' W 122°44'3 2.7
2016-Nov-28 02:33N 45°36' W 122°47'4 3.5
2016-Nov-28 01:33N 45°38' W 122°43'0 0.0
2016-Nov-28 00:33N 45°38' W 122°43'1 1.1
2016-Nov-27 23:32N 45°38' W 122°42'1 0.5
2016-Nov-27 22:33N 45°38' W 122°42'0 0.5
2016-Nov-27 21:33N 45°38' W 122°42'1 1.5
2016-Nov-27 20:34N 45°38' W 122°44'3 2.8
2016-Nov-27 19:33N 45°37' W 122°47'5 4.6
2016-Nov-27 18:34N 45°34' W 122°44'2 1.8
2016-Nov-27 17:34N 45°33' W 122°42'5 5.4
2016-Nov-27 16:33N 45°36' W 122°47'2 1.9
2016-Nov-27 15:34N 45°38' W 122°47'2 1.7
2016-Nov-27 14:33N 45°39' W 122°44'1 1.5
2016-Nov-27 13:34N 45°38' W 122°42'  
Track history (hours):
 
Tides and Currents Weather Stations Pressure Air Temp Water Temp Dewpoint Dewpoint Depression Visibility Wind Speed Wind Dir Waves Ship Positions

Sommer S

Owner: Shaver Transportation Company, Portland, OR. More information available from US FCC via Universal Licensing System and Coast Guard Vessel Documentation Center.

Last reported at 2016-Dec-07 13:34 UTC. Time now 2016-Dec-07 14:30 UTC.
Position N 46°05' W 122°56'.

Length 25 m; draft 16.5 m.

Type: Tug. MMSI: 367530080.

Date/timePositionNaut miles runAvg speedWind from/ knotsBaromVisibWave heightAir tempDewpointWater temp
2016-Dec-07 13:34N 46°05' W 122°56'0 0.0
2016-Dec-07 12:33N 46°05' W 122°56'0 0.0
2016-Dec-07 11:33N 46°05' W 122°56'0 0.0
2016-Dec-07 10:33N 46°05' W 122°56'0 0.0
2016-Dec-07 09:34N 46°05' W 122°56'0 0.0
2016-Dec-07 08:33N 46°05' W 122°56'0 0.0
2016-Dec-07 07:34N 46°05' W 122°56'0 0.0
2016-Dec-07 06:34N 46°05' W 122°56'0 0.0
2016-Dec-07 05:34N 46°05' W 122°56'0 0.0
2016-Dec-07 04:34N 46°05' W 122°56'0 0.0
2016-Dec-07 03:34N 46°05' W 122°56'0 0.0
2016-Dec-07 02:33N 46°05' W 122°56'0 0.0
2016-Dec-07 01:34N 46°05' W 122°56'0 0.0
2016-Dec-07 00:33N 46°05' W 122°56'1 0.5
2016-Dec-06 23:34N 46°06' W 122°56'1 0.9
2016-Dec-06 22:33N 46°05' W 122°55'0 0.0
2016-Dec-06 21:34N 46°05' W 122°55'0 0.0
2016-Dec-06 20:34N 46°05' W 122°55'0 0.0
2016-Dec-06 18:33N 46°05' W 122°55'2 1.6
2016-Dec-06 17:33N 46°06' W 122°57'0 0.1
2016-Dec-06 16:34N 46°06' W 122°57'1 1.2
2016-Dec-06 15:33N 46°05' W 122°56'0 0.0
2016-Dec-06 14:33N 46°05' W 122°56'0 0.0
2016-Dec-06 13:33N 46°05' W 122°56'0 0.0
2016-Dec-06 12:34N 46°05' W 122°56'0 0.0
2016-Dec-06 11:33N 46°05' W 122°56'2 2.3
2016-Dec-06 10:34N 46°04' W 122°53'0 0.4
2016-Dec-06 09:34N 46°04' W 122°53'0 0.0
2016-Dec-06 08:33N 46°04' W 122°53'0 0.0
2016-Dec-06 07:33N 46°04' W 122°53'0 0.0
2016-Dec-06 06:34N 46°04' W 122°53'0 0.0
2016-Dec-06 05:34N 46°04' W 122°53'2 2.0
2016-Dec-06 04:33N 46°02' W 122°52'1 0.6
2016-Dec-06 03:33N 46°01' W 122°52'1111.2
2016-Dec-06 02:34N 45°50' W 122°47'1111.5
2016-Dec-06 01:33N 45°39' W 122°45'1 0.7
2016-Dec-06 00:34N 45°40' W 122°46'0 0.4
2016-Dec-05 23:33N 45°40' W 122°45'2 2.0
2016-Dec-05 22:33N 45°38' W 122°43'4 3.9
2016-Dec-05 21:34N 45°35' W 122°46'2 2.1
2016-Dec-05 20:33N 45°34' W 122°44'1 0.6
2016-Dec-05 19:33N 45°34' W 122°44'1 0.9
2016-Dec-05 18:33N 45°35' W 122°45'4 3.8
2016-Dec-05 17:33N 45°38' W 122°42'2 1.6
2016-Dec-05 16:33N 45°39' W 122°44'1 1.4
2016-Dec-05 15:33N 45°38' W 122°42'2 2.4
2016-Dec-05 14:33N 45°39' W 122°45'2 2.2
2016-Dec-05 13:33N 45°38' W 122°43'0 0.1
2016-Dec-05 12:34N 45°38' W 122°43'2 1.6
2016-Dec-05 11:33N 45°39' W 122°45'0 0.0
2016-Dec-05 10:34N 45°39' W 122°45'0 0.0
2016-Dec-05 09:33N 45°39' W 122°45'0 0.0
2016-Dec-05 08:33N 45°39' W 122°45'0 0.0
2016-Dec-05 07:34N 45°39' W 122°45'0 0.0
2016-Dec-05 06:33N 45°39' W 122°45'0 0.0
2016-Dec-05 05:34N 45°39' W 122°45'1 1.4
2016-Dec-05 04:34N 45°38' W 122°47'6 6.1
2016-Dec-05 03:33N 45°33' W 122°42'1 1.3
2016-Dec-05 02:32N 45°32' W 122°41'3 2.6
2016-Dec-05 01:33N 45°34' W 122°44'5 5.0
2016-Dec-05 00:34N 45°38' W 122°47'3 3.0
2016-Dec-04 23:34N 45°38' W 122°43'0 0.5
2016-Dec-04 22:33N 45°38' W 122°44'1 1.4
2016-Dec-04 21:33N 45°38' W 122°42'3 2.6
2016-Dec-04 20:33N 45°39' W 122°45'2 2.1
2016-Dec-04 19:34N 45°38' W 122°42'4 3.9
2016-Dec-04 18:33N 45°35' W 122°46'2 1.9
2016-Dec-04 17:34N 45°34' W 122°44'0 0.0
2016-Dec-04 16:33N 45°34' W 122°44'1 1.4
2016-Dec-04 15:33N 45°35' W 122°45'2 2.0
2016-Dec-04 14:33N 45°36' W 122°47'0 0.4
2016-Dec-04 13:33N 45°36' W 122°47'3 3.0
2016-Dec-04 12:33N 45°39' W 122°46'1 0.8
2016-Dec-04 11:34N 45°39' W 122°45'0 0.0
2016-Dec-04 10:33N 45°39' W 122°45'0 0.0
2016-Dec-04 09:34N 45°39' W 122°45'0 0.0
2016-Dec-04 08:34N 45°39' W 122°45'0 0.0
2016-Dec-04 07:33N 45°39' W 122°45'0 0.0
2016-Dec-04 06:33N 45°39' W 122°45'0 0.0
2016-Dec-04 05:34N 45°39' W 122°45'0 0.0
2016-Dec-04 04:34N 45°39' W 122°45'0 0.0
2016-Dec-04 03:33N 45°39' W 122°45'1 1.1
2016-Dec-04 02:33N 45°38' W 122°44'1 1.1
2016-Dec-04 01:34N 45°39' W 122°45'0 0.0
2016-Dec-04 00:33N 45°39' W 122°45'0 0.0
2016-Dec-03 23:33N 45°39' W 122°45'1 0.8
2016-Dec-03 22:33N 45°39' W 122°46'3 2.7
2016-Dec-03 21:34N 45°36' W 122°47'0 0.1
2016-Dec-03 20:33N 45°36' W 122°47'0 0.1
2016-Dec-03 19:34N 45°36' W 122°47'3 3.1
2016-Dec-03 18:34N 45°34' W 122°44'1 0.6
2016-Dec-03 17:33N 45°34' W 122°43'0 0.0
2016-Dec-03 16:33N 45°34' W 122°43'0 0.0
2016-Dec-03 15:33N 45°34' W 122°43'5 5.1
2016-Dec-03 14:33N 45°39' W 122°47'3 2.7
2016-Dec-03 13:34N 45°38' W 122°43'1 1.5
2016-Dec-03 12:33N 45°39' W 122°45'3 2.7
2016-Dec-03 11:34N 45°36' W 122°47'0 0.0
2016-Dec-03 10:34N 45°36' W 122°47'3 2.6
2016-Dec-03 09:34N 45°34' W 122°44'0 0.3
2016-Dec-03 08:34N 45°34' W 122°44'1 0.5
2016-Dec-03 07:34N 45°34' W 122°44'0 0.0
2016-Dec-03 06:33N 45°34' W 122°44'0 0.0
2016-Dec-03 05:34N 45°34' W 122°44'0 0.0
2016-Dec-03 04:33N 45°34' W 122°44'0 0.0
2016-Dec-03 03:34N 45°34' W 122°44'0 0.0
2016-Dec-03 02:33N 45°34' W 122°44'0 0.0
2016-Dec-03 01:34N 45°34' W 122°44'1 0.5
2016-Dec-03 00:33N 45°34' W 122°43'3 3.2
2016-Dec-02 23:34N 45°36' W 122°47'9 8.8
2016-Dec-02 22:33N 45°45' W 122°46'3 3.3
2016-Dec-02 21:34N 45°48' W 122°47'5 5.3
2016-Dec-02 20:34N 45°53' W 122°48'3 2.8
2016-Dec-02 19:34N 45°51' W 122°47'9 9.0
2016-Dec-02 18:33N 45°41' W 122°46'7 6.8
2016-Dec-02 17:34N 45°35' W 122°45'2 1.6
2016-Dec-02 16:34N 45°34' W 122°43'0 0.1
2016-Dec-02 15:33N 45°34' W 122°43'1 0.6
2016-Dec-02 14:33N 45°34' W 122°44'0 0.0
2016-Dec-02 13:33N 45°34' W 122°44'0 0.0
2016-Dec-02 12:34N 45°34' W 122°44'0 0.0
2016-Dec-02 11:34N 45°34' W 122°44'0 0.0
2016-Dec-02 10:34N 45°34' W 122°44'0 0.0
2016-Dec-02 09:27N 45°34' W 122°44'0 0.0
2016-Dec-02 08:17N 45°34' W 122°44'0 0.5
2016-Dec-02 07:33N 45°34' W 122°44'3 2.9
2016-Dec-02 06:33N 45°32' W 122°41'1 1.3
2016-Dec-02 05:33N 45°33' W 122°42'1 1.3
2016-Dec-02 04:33N 45°34' W 122°44'0 0.0
2016-Dec-02 03:33N 45°34' W 122°44'5 5.4
2016-Dec-02 02:33N 45°39' W 122°46'1 0.7
2016-Dec-02 01:33N 45°39' W 122°45'4 4.2
2016-Dec-02 00:33N 45°35' W 122°45'4 3.4
2016-Dec-01 23:26N 45°32' W 122°40'3 3.1
2016-Dec-01 22:33N 45°34' W 122°44'0 0.0
2016-Dec-01 21:33N 45°34' W 122°44'2 2.4
2016-Dec-01 20:33N 45°32' W 122°41'0 0.2
2016-Dec-01 19:33N 45°32' W 122°41'3 2.7
2016-Dec-01 18:34N 45°34' W 122°44'1 1.3
2016-Dec-01 17:34N 45°35' W 122°45'1 1.4
2016-Dec-01 16:33N 45°34' W 122°44'0 0.0
2016-Dec-01 15:34N 45°34' W 122°44'0 0.0
2016-Dec-01 14:33N 45°34' W 122°44'1 0.7
2016-Dec-01 13:33N 45°34' W 122°44'4 4.5
2016-Dec-01 12:33N 45°39' W 122°45'2 1.6
2016-Dec-01 11:34N 45°40' W 122°46'2 1.6
2016-Dec-01 10:34N 45°39' W 122°45'0 0.0
2016-Dec-01 09:33N 45°39' W 122°45'0 0.0
2016-Dec-01 08:34N 45°39' W 122°45'0 0.0
2016-Dec-01 07:34N 45°39' W 122°45'0 0.4
2016-Dec-01 06:34N 45°39' W 122°45'0 0.4
2016-Dec-01 05:33N 45°39' W 122°45'0 0.0
2016-Dec-01 04:33N 45°39' W 122°45'0 0.0
2016-Dec-01 03:33N 45°39' W 122°45'2 2.3
2016-Dec-01 02:34N 45°37' W 122°47'6 5.6
2016-Dec-01 01:34N 45°33' W 122°42'1 1.3
2016-Dec-01 00:33N 45°32' W 122°40'3 2.7
2016-Nov-30 23:33N 45°34' W 122°44'0 0.0
2016-Nov-30 22:33N 45°34' W 122°44'0 0.0
2016-Nov-30 21:33N 45°34' W 122°44'3 2.7
2016-Nov-30 20:32N 45°32' W 122°40'2 2.5
2016-Nov-30 19:33N 45°34' W 122°43'0 0.3
2016-Nov-30 18:33N 45°34' W 122°44'0 0.0
2016-Nov-30 17:33N 45°34' W 122°44'0 0.2
2016-Nov-30 16:33N 45°34' W 122°43'2 1.6
2016-Nov-30 15:34N 45°33' W 122°42'1 0.6
2016-Nov-30 14:33N 45°33' W 122°42'6 5.9
2016-Nov-30 13:33N 45°38' W 122°47'2 2.4
2016-Nov-30 12:33N 45°39' W 122°44'8 7.6
2016-Nov-30 11:34N 45°46' W 122°46'10 9.6
2016-Nov-30 10:34N 45°55' W 122°48'9 9.3
2016-Nov-30 09:33N 46°04' W 122°53'2 2.2
2016-Nov-30 08:33N 46°05' W 122°56'0 0.0
2016-Nov-30 07:34N 46°05' W 122°56'0 0.0
2016-Nov-30 06:33N 46°05' W 122°56'0 0.0
2016-Nov-30 05:34N 46°05' W 122°56'0 0.0
2016-Nov-30 04:33N 46°05' W 122°56'0 0.0
2016-Nov-30 03:34N 46°05' W 122°56'0 0.0
2016-Nov-30 02:33N 46°05' W 122°56'4 3.7
2016-Nov-30 01:34N 46°03' W 122°53'4 3.6
2016-Nov-30 00:33N 46°05' W 122°56'0 0.0
2016-Nov-29 23:33N 46°05' W 122°56'7 7.4
2016-Nov-29 22:33N 45°59' W 122°50'0 0.1
2016-Nov-29 21:33N 45°59' W 122°50'2 2.3
2016-Nov-29 20:34N 46°01' W 122°52'6 5.5
2016-Nov-29 19:33N 46°06' W 122°56'0 0.4
2016-Nov-29 18:33N 46°06' W 122°57'0 0.3
2016-Nov-29 17:34N 46°06' W 122°56'4 4.1
2016-Nov-29 16:33N 46°03' W 122°53'1212.3
2016-Nov-29 15:33N 45°51' W 122°47'1110.5
2016-Nov-29 14:34N 45°40' W 122°46'2 2.2
2016-Nov-29 13:33N 45°39' W 122°45'1 1.1
2016-Nov-29 12:33N 45°38' W 122°43'1 1.5
2016-Nov-29 11:34N 45°39' W 122°45'1 0.6
2016-Nov-29 10:33N 45°39' W 122°44'0 0.1
2016-Nov-29 09:33N 45°39' W 122°44'0 0.5
2016-Nov-29 08:34N 45°39' W 122°45'1 0.8
2016-Nov-29 07:33N 45°39' W 122°46'0 0.1
2016-Nov-29 06:33N 45°39' W 122°46'1 1.1
2016-Nov-29 05:34N 45°39' W 122°45'1 0.6
2016-Nov-29 04:34N 45°38' W 122°44'1 1.2
2016-Nov-29 03:33N 45°38' W 122°42'4 3.9
2016-Nov-29 02:34N 45°36' W 122°47'2 2.3
2016-Nov-29 01:34N 45°34' W 122°44'1 0.6
2016-Nov-29 00:33N 45°34' W 122°44'0 0.0
2016-Nov-28 23:33N 45°34' W 122°44'0 0.0
2016-Nov-28 22:33N 45°34' W 122°44'0 0.0
2016-Nov-28 21:33N 45°34' W 122°44'0 0.0
2016-Nov-28 20:33N 45°34' W 122°44'3 2.5
2016-Nov-28 19:33N 45°32' W 122°41'3 2.5
2016-Nov-28 18:34N 45°34' W 122°44'0 0.0
2016-Nov-28 17:33N 45°34' W 122°44'0 0.0
2016-Nov-28 16:34N 45°34' W 122°44'0 0.0
2016-Nov-28 15:34N 45°34' W 122°44'3 2.9
2016-Nov-28 14:34N 45°36' W 122°46'1 0.6
2016-Nov-28 13:34N 45°36' W 122°47'0 0.0
2016-Nov-28 12:33N 45°36' W 122°47'0 0.0
2016-Nov-28 11:34N 45°36' W 122°47'0 0.0
2016-Nov-28 10:34N 45°36' W 122°47'0 0.0
2016-Nov-28 09:33N 45°36' W 122°47'0 0.0
2016-Nov-28 08:33N 45°36' W 122°47'3 2.9
2016-Nov-28 07:34N 45°34' W 122°44'1 0.6
2016-Nov-28 06:33N 45°35' W 122°45'2 2.3
2016-Nov-28 05:33N 45°36' W 122°47'0 0.0
2016-Nov-28 04:34N 45°36' W 122°47'3 2.9
2016-Nov-28 03:33N 45°34' W 122°44'3 2.7
2016-Nov-28 02:33N 45°36' W 122°47'4 3.5
2016-Nov-28 01:33N 45°38' W 122°43'0 0.0
2016-Nov-28 00:33N 45°38' W 122°43'1 1.1
2016-Nov-27 23:32N 45°38' W 122°42'1 0.5
2016-Nov-27 22:33N 45°38' W 122°42'0 0.5
2016-Nov-27 21:33N 45°38' W 122°42'1 1.5
2016-Nov-27 20:34N 45°38' W 122°44'3 2.8
2016-Nov-27 19:33N 45°37' W 122°47'5 4.6
2016-Nov-27 18:34N 45°34' W 122°44'2 1.8
2016-Nov-27 17:34N 45°33' W 122°42'5 5.4
2016-Nov-27 16:33N 45°36' W 122°47'2 1.9
2016-Nov-27 15:34N 45°38' W 122°47'2 1.7
2016-Nov-27 14:33N 45°39' W 122°44'1 1.5
2016-Nov-27 13:34N 45°38' W 122°42'  

Dump ship's entire track history